Nivaria — ECHI — position and weather

sailwx.info

Track history (hours):
 
Tides and Currents Weather Stations Pressure Air Temp Water Temp Dewpoint Dewpoint Depression Visibility Wind Speed Wind Dir Waves Ship Positions

Nivaria

Last reported at 2018-Jan-21 03:40 UTC. Time now 2018-Jan-21 07:03 UTC.
Position N 28°09' W 016°22'.

Length 97 m; draft 6 m.

Type: Ship. MMSI: 224296000.

Date/timePositionNaut miles runAvg speedWind from/ knotsBaromVisibWave heightAir tempDewpointWater temp
2018-Jan-21 03:40N 28°09' W 016°22'210.4
2018-Jan-21 03:28N 28°11' W 016°21'510.3
2018-Jan-21 03:00N 28°15' W 016°19'510.2
2018-Jan-21 02:30N 28°20' W 016°17'510.4
2018-Jan-21 02:00N 28°25' W 016°15'5 9.1
2018-Jan-21 01:30N 28°29' W 016°13'0 0.1
2018-Jan-21 00:58N 28°29' W 016°13'0 0.0
2018-Jan-21 00:25N 28°29' W 016°13'0 0.0
2018-Jan-20 23:55N 28°29' W 016°13'0 0.0
2018-Jan-20 23:25N 28°29' W 016°13'0 0.0
2018-Jan-20 22:55N 28°29' W 016°13'0 0.0
2018-Jan-20 22:28N 28°29' W 016°13'0 0.0
2018-Jan-20 21:58N 28°29' W 016°13'0 0.0
2018-Jan-20 21:25N 28°29' W 016°13'0 0.0
2018-Jan-20 20:58N 28°29' W 016°13'0 0.0
2018-Jan-20 20:28N 28°29' W 016°13'0 0.0
2018-Jan-20 19:58N 28°29' W 016°13'0 0.0
2018-Jan-20 19:28N 28°29' W 016°13'0 0.0
2018-Jan-20 18:58N 28°29' W 016°13'0 0.0
2018-Jan-20 18:28N 28°29' W 016°13'0 0.0
2018-Jan-20 17:58N 28°29' W 016°13'0 0.0
2018-Jan-20 17:28N 28°29' W 016°13'0 0.0
2018-Jan-20 16:58N 28°29' W 016°13'0 0.0
2018-Jan-20 16:28N 28°29' W 016°13'0 0.0
2018-Jan-20 15:58N 28°29' W 016°13'0 0.0
2018-Jan-20 15:28N 28°29' W 016°13'0 0.0
2018-Jan-20 14:55N 28°29' W 016°13'0 0.0
2018-Jan-20 14:28N 28°29' W 016°13'0 0.0
2018-Jan-20 13:55N 28°29' W 016°13'0 0.0
2018-Jan-20 13:28N 28°29' W 016°13'0 0.0
2018-Jan-20 12:58N 28°29' W 016°13'0 0.0
2018-Jan-20 12:28N 28°29' W 016°13'0 0.0
2018-Jan-20 11:58N 28°29' W 016°13'1 1.8
2018-Jan-20 11:30N 28°29' W 016°14'4 7.0
2018-Jan-20 11:00N 28°29' W 016°10'510.9
2018-Jan-20 10:30N 28°31' W 016°04'1210.4
2018-Jan-20 09:19N 28°36' W 015°51'310.1
2018-Jan-20 09:00N 28°38' W 015°48'4 8.9
2018-Jan-20 08:30N 28°36' W 015°43'5 9.7
2018-Jan-20 08:00N 28°34' W 015°39'5 9.5
2018-Jan-20 07:30N 28°31' W 015°34'5 9.7
2018-Jan-20 07:00N 28°29' W 015°29'5 9.5
2018-Jan-20 06:30N 28°27' W 015°24'5 9.4
2018-Jan-20 06:00N 28°24' W 015°20'5 9.6
2018-Jan-20 05:30N 28°22' W 015°15'5 9.6
2018-Jan-20 04:59N 28°19' W 015°10'5 9.6
2018-Jan-20 04:30N 28°17' W 015°06'5 9.6
2018-Jan-20 04:00N 28°14' W 015°01'5 9.5
2018-Jan-20 03:30N 28°12' W 014°57'5 9.5
2018-Jan-20 03:00N 28°09' W 014°52'5 9.4
2018-Jan-20 02:30N 28°07' W 014°47'5 9.4
2018-Jan-20 02:01N 28°05' W 014°43'5 9.5
2018-Jan-20 01:30N 28°03' W 014°38'2910.2
2018-Jan-19 22:39N 28°06' W 014°05'311.1
2018-Jan-19 22:25N 28°07' W 014°02'4410.9
2018-Jan-19 18:25N 28°45' W 013°38'511.4
2018-Jan-19 17:59N 28°49' W 013°36'611.4
2018-Jan-19 17:29N 28°55' W 013°33'4 0.2
2018-Jan-18 23:53N 28°58' W 013°32'1 1.9
2018-Jan-18 23:30N 28°57' W 013°32'4 7.6
2018-Jan-18 22:59N 28°54' W 013°35'510.5
2018-Jan-18 22:30N 28°52' W 013°40'67 9.6
2018-Jan-18 15:28N 28°43' W 014°56'4 9.3
2018-Jan-18 15:00N 28°43' W 015°01'5 9.1
2018-Jan-18 14:30N 28°42' W 015°06'5 9.3
2018-Jan-18 14:00N 28°42' W 015°11'5 9.1
2018-Jan-18 13:30N 28°41' W 015°17'4 9.1
2018-Jan-18 13:00N 28°40' W 015°22'4 8.8
2018-Jan-18 12:30N 28°40' W 015°27'4 8.8
2018-Jan-18 12:00N 28°39' W 015°32'4 8.8
2018-Jan-18 11:30N 28°39' W 015°37'9 9.1
2018-Jan-18 10:29N 28°38' W 015°47'4 8.9
2018-Jan-18 10:00N 28°36' W 015°51'5 8.9
2018-Jan-18 09:28N 28°34' W 015°56'4 8.6
2018-Jan-18 09:00N 28°32' W 016°00'4 8.4
2018-Jan-18 08:30N 28°30' W 016°04'4 8.6
2018-Jan-18 08:00N 28°28' W 016°09'510.0
2018-Jan-18 07:30N 28°27' W 016°14'1 2.6
2018-Jan-18 07:00N 28°27' W 016°16'  
2018-Jan-12 15:00N 28°23' W 016°14'0 0.8
2018-Jan-12 14:30N 28°23' W 016°13'0 0.8
2018-Jan-12 14:00N 28°24' W 016°13'0 0.8
2018-Jan-12 13:27N 28°24' W 016°13'0 0.8
2018-Jan-12 13:00N 28°24' W 016°12'0 0.8
2018-Jan-12 12:30N 28°25' W 016°12'0 0.4
2018-Jan-12 12:00N 28°25' W 016°12'4 8.8
2018-Jan-12 11:30N 28°27' W 016°08'510.6
2018-Jan-12 11:00N 28°26' W 016°02'1210.9
2018-Jan-12 09:57N 28°22' W 015°50'510.8
2018-Jan-12 09:30N 28°20' W 015°45'710.8
2018-Jan-12 08:51N 28°18' W 015°37'410.7
2018-Jan-12 08:30N 28°17' W 015°33'510.5
2018-Jan-12 08:00N 28°15' W 015°28'510.3
2018-Jan-12 07:30N 28°12' W 015°22'5 9.5
2018-Jan-12 07:00N 28°08' W 015°20'5 9.7
2018-Jan-12 06:30N 28°03' W 015°19'5 9.7
2018-Jan-12 06:00N 27°59' W 015°20'2 0.2
2018-Jan-11 16:09N 27°59' W 015°23'0 0.2
2018-Jan-11 15:56N 27°59' W 015°23'1 2.3
2018-Jan-11 15:30N 27°59' W 015°22'4 8.4
2018-Jan-11 15:00N 27°60' W 015°17'1 2.0
2018-Jan-11 14:30N 28°00' W 015°16'1 1.2
2018-Jan-11 14:00N 28°01' W 015°16'0 0.7
2018-Jan-11 13:30N 28°00' W 015°16'5 9.8
2018-Jan-11 13:00N 27°56' W 015°18'5 9.9
2018-Jan-11 12:29N 27°51' W 015°19'  
Track history (hours):
 
Tides and Currents Weather Stations Pressure Air Temp Water Temp Dewpoint Dewpoint Depression Visibility Wind Speed Wind Dir Waves Ship Positions

Nivaria

Last reported at 2018-Jan-21 03:40 UTC. Time now 2018-Jan-21 07:03 UTC.
Position N 28°09' W 016°22'.

Length 97 m; draft 6 m.

Type: Ship. MMSI: 224296000.

Date/timePositionNaut miles runAvg speedWind from/ knotsBaromVisibWave heightAir tempDewpointWater temp
2018-Jan-21 03:40N 28°09' W 016°22'210.4
2018-Jan-21 03:28N 28°11' W 016°21'510.3
2018-Jan-21 03:00N 28°15' W 016°19'510.2
2018-Jan-21 02:30N 28°20' W 016°17'510.4
2018-Jan-21 02:00N 28°25' W 016°15'5 9.1
2018-Jan-21 01:30N 28°29' W 016°13'0 0.1
2018-Jan-21 00:58N 28°29' W 016°13'0 0.0
2018-Jan-21 00:25N 28°29' W 016°13'0 0.0
2018-Jan-20 23:55N 28°29' W 016°13'0 0.0
2018-Jan-20 23:25N 28°29' W 016°13'0 0.0
2018-Jan-20 22:55N 28°29' W 016°13'0 0.0
2018-Jan-20 22:28N 28°29' W 016°13'0 0.0
2018-Jan-20 21:58N 28°29' W 016°13'0 0.0
2018-Jan-20 21:25N 28°29' W 016°13'0 0.0
2018-Jan-20 20:58N 28°29' W 016°13'0 0.0
2018-Jan-20 20:28N 28°29' W 016°13'0 0.0
2018-Jan-20 19:58N 28°29' W 016°13'0 0.0
2018-Jan-20 19:28N 28°29' W 016°13'0 0.0
2018-Jan-20 18:58N 28°29' W 016°13'0 0.0
2018-Jan-20 18:28N 28°29' W 016°13'0 0.0
2018-Jan-20 17:58N 28°29' W 016°13'0 0.0
2018-Jan-20 17:28N 28°29' W 016°13'0 0.0
2018-Jan-20 16:58N 28°29' W 016°13'0 0.0
2018-Jan-20 16:28N 28°29' W 016°13'0 0.0
2018-Jan-20 15:58N 28°29' W 016°13'0 0.0
2018-Jan-20 15:28N 28°29' W 016°13'0 0.0
2018-Jan-20 14:55N 28°29' W 016°13'0 0.0
2018-Jan-20 14:28N 28°29' W 016°13'0 0.0
2018-Jan-20 13:55N 28°29' W 016°13'0 0.0
2018-Jan-20 13:28N 28°29' W 016°13'0 0.0
2018-Jan-20 12:58N 28°29' W 016°13'0 0.0
2018-Jan-20 12:28N 28°29' W 016°13'0 0.0
2018-Jan-20 11:58N 28°29' W 016°13'1 1.8
2018-Jan-20 11:30N 28°29' W 016°14'4 7.0
2018-Jan-20 11:00N 28°29' W 016°10'510.9
2018-Jan-20 10:30N 28°31' W 016°04'1210.4
2018-Jan-20 09:19N 28°36' W 015°51'310.1
2018-Jan-20 09:00N 28°38' W 015°48'4 8.9
2018-Jan-20 08:30N 28°36' W 015°43'5 9.7
2018-Jan-20 08:00N 28°34' W 015°39'5 9.5
2018-Jan-20 07:30N 28°31' W 015°34'5 9.7
2018-Jan-20 07:00N 28°29' W 015°29'5 9.5
2018-Jan-20 06:30N 28°27' W 015°24'5 9.4
2018-Jan-20 06:00N 28°24' W 015°20'5 9.6
2018-Jan-20 05:30N 28°22' W 015°15'5 9.6
2018-Jan-20 04:59N 28°19' W 015°10'5 9.6
2018-Jan-20 04:30N 28°17' W 015°06'5 9.6
2018-Jan-20 04:00N 28°14' W 015°01'5 9.5
2018-Jan-20 03:30N 28°12' W 014°57'5 9.5
2018-Jan-20 03:00N 28°09' W 014°52'5 9.4
2018-Jan-20 02:30N 28°07' W 014°47'5 9.4
2018-Jan-20 02:01N 28°05' W 014°43'5 9.5
2018-Jan-20 01:30N 28°03' W 014°38'2910.2
2018-Jan-19 22:39N 28°06' W 014°05'311.1
2018-Jan-19 22:25N 28°07' W 014°02'4410.9
2018-Jan-19 18:25N 28°45' W 013°38'511.4
2018-Jan-19 17:59N 28°49' W 013°36'611.4
2018-Jan-19 17:29N 28°55' W 013°33'4 0.2
2018-Jan-18 23:53N 28°58' W 013°32'1 1.9
2018-Jan-18 23:30N 28°57' W 013°32'4 7.6
2018-Jan-18 22:59N 28°54' W 013°35'510.5
2018-Jan-18 22:30N 28°52' W 013°40'67 9.6
2018-Jan-18 15:28N 28°43' W 014°56'4 9.3
2018-Jan-18 15:00N 28°43' W 015°01'5 9.1
2018-Jan-18 14:30N 28°42' W 015°06'5 9.3
2018-Jan-18 14:00N 28°42' W 015°11'5 9.1
2018-Jan-18 13:30N 28°41' W 015°17'4 9.1
2018-Jan-18 13:00N 28°40' W 015°22'4 8.8
2018-Jan-18 12:30N 28°40' W 015°27'4 8.8
2018-Jan-18 12:00N 28°39' W 015°32'4 8.8
2018-Jan-18 11:30N 28°39' W 015°37'9 9.1
2018-Jan-18 10:29N 28°38' W 015°47'4 8.9
2018-Jan-18 10:00N 28°36' W 015°51'5 8.9
2018-Jan-18 09:28N 28°34' W 015°56'4 8.6
2018-Jan-18 09:00N 28°32' W 016°00'4 8.4
2018-Jan-18 08:30N 28°30' W 016°04'4 8.6
2018-Jan-18 08:00N 28°28' W 016°09'510.0
2018-Jan-18 07:30N 28°27' W 016°14'1 2.6
2018-Jan-18 07:00N 28°27' W 016°16'  
2018-Jan-12 15:00N 28°23' W 016°14'0 0.8
2018-Jan-12 14:30N 28°23' W 016°13'0 0.8
2018-Jan-12 14:00N 28°24' W 016°13'0 0.8
2018-Jan-12 13:27N 28°24' W 016°13'0 0.8
2018-Jan-12 13:00N 28°24' W 016°12'0 0.8
2018-Jan-12 12:30N 28°25' W 016°12'0 0.4
2018-Jan-12 12:00N 28°25' W 016°12'4 8.8
2018-Jan-12 11:30N 28°27' W 016°08'510.6
2018-Jan-12 11:00N 28°26' W 016°02'1210.9
2018-Jan-12 09:57N 28°22' W 015°50'510.8
2018-Jan-12 09:30N 28°20' W 015°45'710.8
2018-Jan-12 08:51N 28°18' W 015°37'410.7
2018-Jan-12 08:30N 28°17' W 015°33'510.5
2018-Jan-12 08:00N 28°15' W 015°28'510.3
2018-Jan-12 07:30N 28°12' W 015°22'5 9.5
2018-Jan-12 07:00N 28°08' W 015°20'5 9.7
2018-Jan-12 06:30N 28°03' W 015°19'5 9.7
2018-Jan-12 06:00N 27°59' W 015°20'2 0.2
2018-Jan-11 16:09N 27°59' W 015°23'0 0.2
2018-Jan-11 15:56N 27°59' W 015°23'1 2.3
2018-Jan-11 15:30N 27°59' W 015°22'4 8.4
2018-Jan-11 15:00N 27°60' W 015°17'1 2.0
2018-Jan-11 14:30N 28°00' W 015°16'1 1.2
2018-Jan-11 14:00N 28°01' W 015°16'0 0.7
2018-Jan-11 13:30N 28°00' W 015°16'5 9.8
2018-Jan-11 13:00N 27°56' W 015°18'5 9.9
2018-Jan-11 12:29N 27°51' W 015°19'  

Dump ship's entire track history